Relevés horaires Matro (Suisse)


Relevés horaires à Matro - Mardi 17 Mai 2022
Heure UTC1 Température [°C] Vent [km/h] Hum. [%] Pres.4 [hPa] Visi. [Km] Nébu. [octa] Préc.5 [mm] Cond.
2m. Res. Ros. Dir.2 Vit. Moy. Raf.3
23:00 10.5 7.5 3.0 NO 25.9 -- 33.3 60 850(0.5/3h) -- -- -- --
22:00 10.6 8.3 2.5 NO 18.5 -- 42.6 57 850(1.0/3h) -- -- -- --
21:00 10.7 7.8 2.9 NO 25.9 -- 44.4 58 850(0.8/3h) -- -- -- --
20:00 10.9 7.7 3.2 NNO 31.5 -- 44.4 59 850(0.8/3h) -- -- -- --
19:00 11.3 8.2 2.9 NNO 31.5 -- 40.7 56 850(0.1/3h) -- -- -- --
18:00 12.1 9.7 2.4 NO 24.1 -- 35.2 51 850(-0.1/3h) -- -- -- --
17:00 12.5 11 2.1 NO 14.8 -- 31.5 49 850(-0.5/3h) -- -- -- --
16:00 13.0 11.8 1.3 NO 13.0 -- 24.1 45 850(-0.6/3h) -- -- -- --
15:00 13.2 11.7 0.9 NNO 16.7 -- 29.6 43 850(-0.7/3h) -- -- -- --
14:00 12.7 11.7 0.2 NO 11.1 -- 22.2 42 850(-0.8/3h) -- -- -- --
13:00 13.0 12.1 2.2 ONO 11.1 -- 27.8 48 850(-0.6/3h) -- -- -- --
12:00 11.1 9.5 -- NO 13.0 -- 33.3 -- 850(-0.4/3h) -- -- -- --
11:00 12.0 11.1 2.1 NO 9.3 -- 20.4 51 850(0.1/3h) -- -- -- --
10:00 10.6 9.8 0.5 NNO 7.4 -- 24.1 50 850(0.4/3h) -- -- -- --
09:00 10.1 8.9 -0.5 N 9.3 -- 33.3 48 850(0.7/3h) -- -- -- --
08:00 9.2 7 -0.7 NNO 14.8 -- 31.5 50 850(0.7/3h) -- -- -- --
07:00 8.9 6.6 -0.8 NNO 14.8 -- 33.3 51 850(0.5/3h) -- -- -- --
06:00 8.6 5.1 -0.5 NNO 25.9 -- 33.3 53 850(0.2/3h) -- -- -- --
05:00 8.3 4.8 -1.2 NNO 24.1 -- 31.5 51 850(-0.2/3h) -- -- -- --
04:00 7.9 4.7 -0.7 NNO 20.4 -- 25.9 54 850(-0.6/3h) -- -- -- --
03:00 7.9 4.7 0.2 NNO 20.4 -- 24.1 58 850(-0.8/3h) -- -- -- --
02:00 7.9 4.9 1.0 NO 18.5 -- 22.2 62 850(-0.8/3h) -- -- -- --
01:00 8.1 5.1 0.8 NNO 18.5 -- 24.1 60 850(-0.4/3h) -- -- -- --
00:00 8.2 5.1 1.0 NO 20.4 -- 40.7 60 850(-0.1/3h) -- -- -- --

1 Coordinated Universal Time. Actuellement il est 06:00 locale et 04:00 UTC.

2 Le vent souffle depuis la direction indiquée vers la direction oposée.

3 Les rafales max. sont disponible 40 min après l'heure du relevé.

4 Pour les stations d'altitude (plus de 600m) le géopotentiel du niveau le plus proche de la pression obligatoire est indiqué.

5 Les stations disposant d'un diffuseur peuvent indiquer "trace". Cela signifie que des précipitations ont touchés le sol mais que la quantité est inférieure à 0.1 mm.

Copyright

Les données affichées sur cette page sont la propriété exclusive de Météo Suisse.

Récapitulatif de la journée
Température [°C] Vent [km/h] Ensoleillement4 [h] Precipitations totale5 [mm] Pression [Hpa]
Min1 Max.2 Moy.3 Max. Min Max.
7.6 13.5 0 44.4 12 h 0 min 0 850.0 850.0

1 Température minimale relevée entre 18:00 UTC la veille et 18:00 UTC le jour donné.

2 Température maximale relevée entre 06:00 UTC le jour donné et 06:00 UTC le lendemain.

3 Vent moyen de la journée basé sur les relevés horaires.

4 Ensoleillement en heures relevé entre 06:00 UTC la veille et 06:00 UTC le jour donné.

5 Précipitations totales tombées entre 06:00 UTC la jour donné et 06:00 UTC le lendemain.

Graphiques horaires